Time;durP1;ratioP1;P1;durP2;ratioP2;P2;SDS_P1;SDS_P2;PMS_P1;PMS_P2;Temp;Humidity;BMP_temperature;BMP_pressure;BME280_temperature;BME280_humidity;BME280_pressure;Samples;Min_cycle;Max_cycle;Signal;HPM_P1;HPM_P2
2022/01/10 00:01:07;;;;;;;26.73;15.40;;;3.60;99.90;;;;;;5076084;28;20178;-65
2022/01/10 00:03:33;;;;;;;28.47;13.40;;;3.50;99.90;;;;;;5077349;28;20193;-65
2022/01/10 00:05:59;;;;;;;24.00;13.43;;;3.50;99.90;;;;;;5077341;28;20189;-65
2022/01/10 00:08:25;;;;;;;30.70;15.40;;;3.60;99.90;;;;;;5075746;28;20177;-65
2022/01/10 00:10:51;;;;;;;26.53;13.43;;;3.50;99.90;;;;;;5077055;28;20181;-65
2022/01/10 00:13:17;;;;;;;23.17;14.17;;;3.50;99.90;;;;;;5075611;28;20219;-65
2022/01/10 00:15:44;;;;;;;26.10;15.43;;;3.50;99.90;;;;;;5077149;28;20159;-65
2022/01/10 00:18:11;;;;;;;30.20;14.30;;;3.50;99.90;;;;;;5076890;28;20181;-65
2022/01/10 00:20:38;;;;;;;30.67;14.37;;;3.50;99.90;;;;;;5077188;28;20184;-65
2022/01/10 00:23:05;;;;;;;24.67;14.70;;;3.50;99.90;;;;;;5075551;28;20243;-65
2022/01/10 00:25:31;;;;;;;28.20;15.20;;;3.50;99.90;;;;;;5076873;28;20189;-66
2022/01/10 00:27:56;;;;;;;28.77;15.43;;;3.50;99.90;;;;;;5076568;28;20654;-65
2022/01/10 00:30:24;;;;;;;21.20;14.17;;;3.50;99.90;;;;;;5080663;28;20665;-66
2022/01/10 00:32:51;;;;;;;24.07;15.10;;;3.50;99.90;;;;;;5079548;28;20209;-66
2022/01/10 00:35:18;;;;;;;32.47;15.20;;;3.50;99.90;;;;;;5078208;28;20295;-66
2022/01/10 00:37:44;;;;;;;25.27;16.00;;;3.60;99.90;;;;;;5077095;28;20634;-66
2022/01/10 00:40:13;;;;;;;33.50;16.33;;;3.50;99.90;;;;;;5077461;28;20174;-67
2022/01/10 00:42:39;;;;;;;29.53;15.77;;;3.50;99.90;;;;;;5075689;28;20205;-67
2022/01/10 00:45:23;;;;;;;29.33;15.57;;;3.50;99.90;;;;;;5076811;28;20197;-67
2022/01/10 00:47:55;;;;;;;24.07;14.37;;;3.50;99.90;;;;;;5075948;28;20182;-69
2022/01/10 00:50:21;;;;;;;31.53;15.77;;;3.60;99.90;;;;;;5075477;28;20205;-68
2022/01/10 00:52:47;;;;;;;33.27;15.83;;;3.60;99.90;;;;;;5074810;28;20220;-68
2022/01/10 00:55:14;;;;;;;28.80;15.70;;;3.60;99.90;;;;;;5074846;28;20573;-69
2022/01/10 00:57:40;;;;;;;32.93;15.80;;;3.50;99.90;;;;;;5075671;28;20571;-68
2022/01/10 01:00:09;;;;;;;29.70;16.53;;;3.50;99.90;;;;;;5074817;28;20216;-69
2022/01/10 01:02:35;;;;;;;24.20;16.37;;;3.50;99.90;;;;;;5075154;28;20186;-68
2022/01/10 01:05:06;;;;;;;34.43;15.77;;;3.50;99.90;;;;;;5074615;28;20593;-68
2022/01/10 01:07:32;;;;;;;26.40;16.07;;;3.50;99.90;;;;;;5074837;28;20197;-68
2022/01/10 01:12:52;;;;;;;26.97;16.10;;;3.50;99.90;;;;;;5076161;28;20289;-69
2022/01/10 01:15:31;;;;;;;25.47;15.53;;;3.60;99.90;;;;;;5075994;28;20154;-68
2022/01/10 01:18:10;;;;;;;26.30;15.90;;;3.50;99.90;;;;;;5074652;28;20162;-68
2022/01/10 01:25:57;;;;;;;34.10;17.00;;;3.60;99.90;;;;;;5076043;28;20339;-69
2022/01/10 01:28:25;;;;;;;37.20;16.60;;;3.50;99.90;;;;;;5074384;28;20186;-68
2022/01/10 01:30:51;;;;;;;27.70;16.97;;;3.50;99.90;;;;;;5075689;28;20182;-68
2022/01/10 01:33:18;;;;;;;35.17;16.50;;;3.50;99.90;;;;;;5075706;28;20213;-68
2022/01/10 01:35:44;;;;;;;29.13;15.70;;;3.50;99.90;;;;;;5074307;28;20638;-68
2022/01/10 01:38:11;;;;;;;29.07;16.00;;;3.50;99.90;;;;;;5075943;28;20170;-68
2022/01/10 01:40:47;;;;;;;25.90;16.27;;;3.50;99.90;;;;;;5074058;28;20206;-68
2022/01/10 01:43:13;;;;;;;26.53;17.00;;;3.50;99.90;;;;;;5075332;28;20197;-68
2022/01/10 01:45:42;;;;;;;26.73;16.53;;;3.50;99.90;;;;;;5075282;28;20253;-68
2022/01/10 01:48:09;;;;;;;35.67;16.07;;;3.50;99.90;;;;;;5074129;28;20650;-67
2022/01/10 01:50:36;;;;;;;31.40;15.87;;;3.50;99.90;;;;;;5075404;28;20657;-68
2022/01/10 01:53:03;;;;;;;30.43;17.10;;;3.50;99.90;;;;;;5074973;28;20197;-67
2022/01/10 01:55:29;;;;;;;31.13;15.83;;;3.50;99.90;;;;;;5073825;28;20201;-67
2022/01/10 01:57:55;;;;;;;27.87;16.23;;;3.50;99.90;;;;;;5075193;28;20634;-67
2022/01/10 02:00:23;;;;;;;35.17;16.87;;;3.50;99.90;;;;;;5073685;28;20178;-67
2022/01/10 02:02:54;;;;;;;35.40;17.60;;;3.50;99.90;;;;;;5073789;28;20178;-68
2022/01/10 02:05:23;;;;;;;27.00;17.53;;;3.50;99.90;;;;;;5073707;28;20586;-68
2022/01/10 02:07:49;;;;;;;30.23;17.40;;;3.50;99.90;;;;;;5073879;28;20189;-68
2022/01/10 02:10:15;;;;;;;32.33;17.90;;;3.50;99.90;;;;;;5075407;28;20166;-67
2022/01/10 02:12:51;;;;;;;33.13;17.00;;;3.50;99.90;;;;;;5075336;28;20674;-67
2022/01/10 02:15:34;;;;;;;32.73;16.57;;;3.50;99.90;;;;;;5074896;28;20154;-66
2022/01/10 02:18:00;;;;;;;31.30;17.17;;;3.50;99.90;;;;;;5073338;28;20184;-66
2022/01/10 02:20:33;;;;;;;28.50;15.57;;;3.50;99.90;;;;;;5074610;28;20223;-66
2022/01/10 02:23:00;;;;;;;29.83;17.17;;;3.50;99.90;;;;;;5073439;28;20172;-67
2022/01/10 02:25:26;;;;;;;29.43;17.10;;;3.50;99.90;;;;;;5073333;28;20186;-67
2022/01/10 02:27:54;;;;;;;41.87;17.03;;;3.50;99.90;;;;;;5074432;28;20258;-68
2022/01/10 02:30:21;;;;;;;35.77;18.30;;;3.50;99.90;;;;;;5073240;28;20178;-68
2022/01/10 02:32:51;;;;;;;31.50;17.17;;;3.50;99.90;;;;;;5074920;28;20206;-67
2022/01/10 02:35:27;;;;;;;34.13;17.47;;;3.50;99.90;;;;;;5073213;28;20567;-68
2022/01/10 02:38:04;;;;;;;32.00;17.83;;;3.60;99.90;;;;;;5074795;28;20169;-67
2022/01/10 02:40:32;;;;;;;44.80;17.77;;;3.60;99.90;;;;;;5074916;28;20154;-65
2022/01/10 02:42:59;;;;;;;36.73;16.67;;;3.50;99.90;;;;;;5072910;28;20182;-66
2022/01/10 02:45:25;;;;;;;32.00;16.53;;;3.60;99.90;;;;;;5074389;28;20174;-66
2022/01/10 02:47:53;;;;;;;43.80;18.17;;;3.60;99.90;;;;;;5072971;28;20252;-68
2022/01/10 02:50:20;;;;;;;30.83;16.83;;;3.60;99.90;;;;;;5072894;28;20209;-68
2022/01/10 02:52:47;;;;;;;28.03;16.93;;;3.50;99.90;;;;;;5073986;28;20194;-67
2022/01/10 02:55:13;;;;;;;30.07;17.53;;;3.50;99.90;;;;;;5072603;28;20339;-67
2022/01/10 02:57:40;;;;;;;37.30;16.43;;;3.50;99.90;;;;;;5074203;28;20170;-67
2022/01/10 03:00:10;;;;;;;29.40;15.97;;;3.50;99.90;;;;;;5072770;28;20170;-67
2022/01/10 03:02:43;;;;;;;32.00;17.50;;;3.50;99.90;;;;;;5072650;28;20177;-68
2022/01/10 03:05:10;;;;;;;28.00;15.70;;;3.40;99.90;;;;;;5073575;28;20690;-67
2022/01/10 03:07:37;;;;;;;30.90;16.17;;;3.40;99.90;;;;;;5074004;28;20635;-67
2022/01/10 03:10:07;;;;;;;30.37;15.23;;;3.40;99.90;;;;;;5073846;28;20201;-67
2022/01/10 03:12:35;;;;;;;40.37;17.53;;;3.40;99.90;;;;;;5073793;28;20198;-66
2022/01/10 03:15:03;;;;;;;34.13;16.67;;;3.30;99.90;;;;;;5073877;28;20201;-65
2022/01/10 03:17:41;;;;;;;29.03;16.53;;;3.30;99.90;;;;;;5073704;28;20170;-66
2022/01/10 03:20:14;;;;;;;28.53;17.17;;;3.30;99.90;;;;;;5072964;28;20166;-68
2022/01/10 03:22:40;;;;;;;40.50;17.70;;;3.20;99.90;;;;;;5072654;28;20741;-68
2022/01/10 03:25:06;;;;;;;30.27;16.43;;;3.20;99.90;;;;;;5072765;28;20248;-68
2022/01/10 03:27:32;;;;;;;26.00;16.63;;;3.20;99.90;;;;;;5073513;28;20562;-67
2022/01/10 03:29:58;;;;;;;28.63;16.47;;;3.10;99.90;;;;;;5072351;28;20268;-68
2022/01/10 03:32:25;;;;;;;39.27;17.43;;;3.10;99.90;;;;;;5073387;28;20223;-68
2022/01/10 03:34:52;;;;;;;30.50;17.33;;;3.10;99.90;;;;;;5072252;28;20193;-68
2022/01/10 03:37:18;;;;;;;35.43;19.10;;;3.00;99.90;;;;;;5073460;28;20174;-68
2022/01/10 03:39:46;;;;;;;28.73;18.23;;;3.00;99.90;;;;;;5072105;28;20307;-68
2022/01/10 03:42:12;;;;;;;33.53;16.60;;;3.00;99.90;;;;;;5073555;28;20290;-67
2022/01/10 03:44:38;;;;;;;42.90;19.37;;;2.90;99.90;;;;;;5073692;28;20290;-67
2022/01/10 03:47:05;;;;;;;39.33;19.07;;;2.80;99.90;;;;;;5073458;28;20311;-67
2022/01/10 03:49:31;;;;;;;29.40;15.33;;;2.80;99.90;;;;;;5072542;28;20173;-67
2022/01/10 03:51:57;;;;;;;22.93;15.90;;;2.70;99.90;;;;;;5073676;28;20169;-68
2022/01/10 03:54:40;;;;;;;34.17;17.60;;;2.70;99.90;;;;;;5073274;28;20228;-67
2022/01/10 03:57:07;;;;;;;30.10;17.13;;;2.70;99.90;;;;;;5071847;28;20583;-68
2022/01/10 03:59:33;;;;;;;31.53;18.33;;;2.60;99.90;;;;;;5073670;28;20655;-68
2022/01/10 04:01:59;;;;;;;27.10;16.47;;;2.50;99.90;;;;;;5073195;28;20184;-68
2022/01/10 04:04:27;;;;;;;30.97;17.73;;;2.40;99.90;;;;;;5073045;28;20229;-68
2022/01/10 04:06:57;;;;;;;30.67;16.40;;;2.40;99.90;;;;;;5072248;28;20184;-68
2022/01/10 04:09:23;;;;;;;32.00;17.37;;;2.30;99.90;;;;;;5073210;28;20217;-66
2022/01/10 04:11:53;;;;;;;27.20;16.27;;;2.30;99.90;;;;;;5071956;28;20268;-66
2022/01/10 04:14:19;;;;;;;31.20;17.07;;;2.20;99.90;;;;;;5071482;28;20312;-65
2022/01/10 04:16:49;;;;;;;30.90;17.00;;;2.20;99.90;;;;;;5072908;28;20174;-67
2022/01/10 04:19:18;;;;;;;25.93;14.97;;;2.20;99.90;;;;;;5073567;28;20174;-67
2022/01/10 04:21:44;;;;;;;34.40;16.67;;;2.20;99.90;;;;;;5073105;28;20194;-67
2022/01/10 04:24:11;;;;;;;27.33;16.37;;;2.10;99.90;;;;;;5072784;28;20643;-67
2022/01/10 04:26:37;;;;;;;28.50;16.53;;;2.10;99.90;;;;;;5071285;28;20204;-67
2022/01/10 04:29:03;;;;;;;29.20;16.53;;;2.00;99.90;;;;;;5071457;28;20181;-67
2022/01/10 04:31:29;;;;;;;29.20;16.47;;;2.00;99.90;;;;;;5071520;28;20178;-67
2022/01/10 04:33:54;;;;;;;35.43;16.83;;;1.90;99.90;;;;;;5072723;28;20206;-67
2022/01/10 04:36:20;;;;;;;26.73;16.17;;;1.90;99.90;;;;;;5073054;28;20154;-67
2022/01/10 04:38:46;;;;;;;30.90;16.87;;;1.80;99.90;;;;;;5073588;28;20205;-67
2022/01/10 04:41:12;;;;;;;31.13;17.43;;;1.80;99.90;;;;;;5075025;28;20186;-67
2022/01/10 04:43:39;;;;;;;26.70;16.53;;;1.70;99.90;;;;;;5075028;28;20315;-67
2022/01/10 04:46:05;;;;;;;22.97;15.67;;;1.70;99.90;;;;;;5075819;28;20189;-67
2022/01/10 04:48:31;;;;;;;24.30;15.27;;;1.70;99.90;;;;;;5076590;28;20626;-67
2022/01/10 04:51:17;;;;;;;26.23;16.30;;;1.60;99.90;;;;;;5076779;28;20223;-68
2022/01/10 04:53:50;;;;;;;25.40;15.50;;;1.50;99.90;;;;;;5077654;28;20692;-68
2022/01/10 04:56:18;;;;;;;26.87;15.70;;;1.50;99.90;;;;;;5076980;28;20180;-67
2022/01/10 04:58:48;;;;;;;30.53;16.10;;;1.40;99.90;;;;;;5075797;28;20185;-67
2022/01/10 05:01:19;;;;;;;23.43;15.90;;;1.40;99.90;;;;;;5076514;28;20189;-67
2022/01/10 05:03:45;;;;;;;25.93;17.27;;;1.30;99.90;;;;;;5077015;28;20204;-67
2022/01/10 05:06:11;;;;;;;32.77;16.63;;;1.30;99.90;;;;;;5078282;28;20170;-67
2022/01/10 05:08:37;;;;;;;23.20;14.97;;;1.30;99.90;;;;;;5075847;28;20178;-68
2022/01/10 05:11:04;;;;;;;25.47;16.83;;;1.20;99.90;;;;;;5076177;28;20185;-68
2022/01/10 05:13:30;;;;;;;24.63;16.90;;;1.20;99.90;;;;;;5074604;28;20259;-68
2022/01/10 05:15:56;;;;;;;29.63;17.03;;;1.20;99.90;;;;;;5075807;28;20166;-67
2022/01/10 05:18:23;;;;;;;30.17;16.97;;;1.10;99.90;;;;;;5075843;28;20229;-67
2022/01/10 05:20:50;;;;;;;28.13;16.17;;;1.10;99.90;;;;;;5075928;28;20631;-68
2022/01/10 05:23:16;;;;;;;27.07;16.70;;;1.00;99.90;;;;;;5074778;28;20565;-67
2022/01/10 05:25:42;;;;;;;30.60;18.20;;;1.10;99.90;;;;;;5075756;28;20185;-68
2022/01/10 05:28:11;;;;;;;29.60;17.53;;;1.10;99.90;;;;;;5078525;28;20177;-67
2022/01/10 05:30:38;;;;;;;33.80;17.00;;;1.10;99.90;;;;;;5079402;28;20649;-67
2022/01/10 05:33:04;;;;;;;26.50;16.07;;;1.10;99.90;;;;;;5076047;28;20209;-68
2022/01/10 05:35:30;;;;;;;28.53;17.03;;;1.10;99.90;;;;;;5077098;28;20723;-68
2022/01/10 05:37:56;;;;;;;28.73;17.30;;;1.20;99.90;;;;;;5079867;28;20257;-70
2022/01/10 05:40:22;;;;;;;30.87;17.30;;;1.20;99.90;;;;;;5080087;28;20167;-68
2022/01/10 05:42:47;;;;;;;30.57;17.80;;;1.30;99.90;;;;;;5076020;28;20565;-67
2022/01/10 05:45:13;;;;;;;32.40;18.23;;;1.30;99.90;;;;;;5075450;28;20601;-68
2022/01/10 05:47:42;;;;;;;33.17;18.67;;;1.40;99.90;;;;;;5075950;28;20177;-68
2022/01/10 05:50:11;;;;;;;34.80;19.23;;;1.40;99.90;;;;;;5075037;28;20176;-68
2022/01/10 05:52:37;;;;;;;31.23;18.70;;;1.40;99.90;;;;;;5073953;28;20209;-67
2022/01/10 05:55:03;;;;;;;35.20;19.83;;;1.50;99.90;;;;;;5075212;28;20704;-67
2022/01/10 05:57:29;;;;;;;52.27;21.33;;;1.50;99.90;;;;;;5073920;28;20193;-67
2022/01/10 05:59:55;;;;;;;35.33;19.90;;;1.50;99.90;;;;;;5075249;28;20630;-67
2022/01/10 06:02:21;;;;;;;35.90;20.97;;;1.50;99.90;;;;;;5075536;28;20170;-67
2022/01/10 06:04:47;;;;;;;35.53;20.20;;;1.50;99.90;;;;;;5074978;28;20221;-68
2022/01/10 06:07:13;;;;;;;42.37;20.87;;;1.50;99.90;;;;;;5073945;28;20228;-66
2022/01/10 06:09:39;;;;;;;42.80;20.23;;;1.50;99.90;;;;;;5075089;28;20292;-66
2022/01/10 06:12:05;;;;;;;36.30;20.20;;;1.50;99.90;;;;;;5074864;28;20542;-66
2022/01/10 06:14:31;;;;;;;40.40;21.00;;;1.50;99.90;;;;;;5074855;28;20209;-66
2022/01/10 06:16:57;;;;;;;33.60;19.30;;;1.50;99.90;;;;;;5073407;28;20184;-65
2022/01/10 06:19:23;;;;;;;38.57;19.87;;;1.50;99.90;;;;;;5075873;28;20261;-65
2022/01/10 06:21:49;;;;;;;41.27;20.73;;;1.50;99.90;;;;;;5075070;28;20304;-65
2022/01/10 06:24:15;;;;;;;39.83;19.50;;;1.50;99.90;;;;;;5074839;28;20571;-66
2022/01/10 06:26:40;;;;;;;35.80;20.77;;;1.50;99.90;;;;;;5075459;28;20197;-67
2022/01/10 06:29:06;;;;;;;34.50;20.00;;;1.50;99.90;;;;;;5074875;28;20182;-67
2022/01/10 06:31:32;;;;;;;38.87;18.90;;;1.50;99.90;;;;;;5073360;28;20273;-67
2022/01/10 06:33:57;;;;;;;33.13;20.03;;;1.50;99.90;;;;;;5074407;28;20206;-67
2022/01/10 06:36:24;;;;;;;34.63;19.37;;;1.40;99.90;;;;;;5073070;28;20180;-67
2022/01/10 06:38:49;;;;;;;41.50;21.53;;;1.40;99.90;;;;;;5074795;28;20193;-66
2022/01/10 06:41:15;;;;;;;38.17;21.13;;;1.40;99.90;;;;;;5074336;28;20534;-66
2022/01/10 06:43:41;;;;;;;33.37;19.50;;;1.40;99.90;;;;;;5074798;28;20201;-66
2022/01/10 06:46:07;;;;;;;40.00;20.73;;;1.40;99.90;;;;;;5073092;28;20205;-66
2022/01/10 06:48:33;;;;;;;38.87;20.37;;;1.40;99.90;;;;;;5073353;28;20211;-66
2022/01/10 06:50:59;;;;;;;45.00;21.97;;;1.40;99.90;;;;;;5074906;28;20219;-66
2022/01/10 06:53:25;;;;;;;47.93;21.27;;;1.40;99.90;;;;;;5074226;28;20209;-66
2022/01/10 06:55:51;;;;;;;41.27;21.53;;;1.40;99.90;;;;;;5073950;28;20173;-66
2022/01/10 06:58:17;;;;;;;51.10;23.20;;;1.50;99.90;;;;;;5072657;28;20181;-65
2022/01/10 07:00:44;;;;;;;44.13;22.87;;;1.50;99.90;;;;;;5073320;28;20538;-65
2022/01/10 07:03:10;;;;;;;48.37;22.53;;;1.50;99.90;;;;;;5073993;28;20174;-65
2022/01/10 07:05:36;;;;;;;46.10;23.77;;;1.50;99.90;;;;;;5073782;28;20178;-66
2022/01/10 07:08:03;;;;;;;48.23;23.87;;;1.50;99.90;;;;;;5073747;28;20165;-65
2022/01/10 07:10:28;;;;;;;47.93;24.73;;;1.50;99.90;;;;;;5073972;28;20207;-66
2022/01/10 07:12:54;;;;;;;51.70;23.53;;;1.50;99.90;;;;;;5073698;28;20201;-65
2022/01/10 07:15:21;;;;;;;52.43;26.17;;;1.50;99.90;;;;;;5073603;28;20248;-66
2022/01/10 07:17:47;;;;;;;43.57;23.77;;;1.50;99.90;;;;;;5073783;28;20169;-66
2022/01/10 07:20:13;;;;;;;38.93;22.00;;;1.50;99.90;;;;;;5073496;28;20166;-65
2022/01/10 07:22:39;;;;;;;47.27;22.80;;;1.50;99.90;;;;;;5073823;28;20218;-66
2022/01/10 07:25:05;;;;;;;48.27;24.47;;;1.60;99.90;;;;;;5073413;28;20194;-65
2022/01/10 07:27:31;;;;;;;44.30;24.20;;;1.50;99.90;;;;;;5073407;28;20197;-66
2022/01/10 07:29:56;;;;;;;36.40;21.10;;;1.50;99.90;;;;;;5073393;28;20544;-66
2022/01/10 07:32:25;;;;;;;46.67;22.17;;;1.50;99.90;;;;;;5073376;28;20645;-66
2022/01/10 07:34:51;;;;;;;50.03;23.30;;;1.60;99.90;;;;;;5073625;28;20654;-66
2022/01/10 07:37:18;;;;;;;42.83;22.97;;;1.60;99.90;;;;;;5073624;28;20170;-65
2022/01/10 07:39:43;;;;;;;41.30;23.57;;;1.60;99.90;;;;;;5073321;28;20657;-66
2022/01/10 07:42:09;;;;;;;39.57;21.83;;;1.60;99.90;;;;;;5073300;28;20331;-66
2022/01/10 07:44:36;;;;;;;47.13;24.00;;;1.60;99.90;;;;;;5071921;28;20197;-65
2022/01/10 07:47:02;;;;;;;40.57;23.93;;;1.60;99.90;;;;;;5072071;28;20227;-66
2022/01/10 07:49:28;;;;;;;47.80;24.87;;;1.60;99.90;;;;;;5073921;28;20178;-66
2022/01/10 07:51:57;;;;;;;48.83;25.40;;;1.60;99.90;;;;;;5073763;28;20279;-66
2022/01/10 07:54:26;;;;;;;48.57;24.47;;;1.70;99.90;;;;;;5073232;28;20225;-66
2022/01/10 07:56:53;;;;;;;47.10;23.67;;;1.70;99.90;;;;;;5073331;28;20170;-66
2022/01/10 07:59:20;;;;;;;59.70;25.73;;;1.70;99.90;;;;;;5071923;28;20184;-66
2022/01/10 08:01:47;;;;;;;56.47;25.07;;;1.60;99.90;;;;;;5073251;28;20170;-66
2022/01/10 08:04:13;;;;;;;52.07;26.27;;;1.70;99.90;;;;;;5073369;28;20559;-66
2022/01/10 08:06:39;;;;;;;43.13;23.90;;;1.70;99.90;;;;;;5073173;28;20174;-66
2022/01/10 08:09:06;;;;;;;49.77;23.93;;;1.70;99.90;;;;;;5073151;28;20181;-66
2022/01/10 08:11:32;;;;;;;48.13;25.00;;;1.70;99.90;;;;;;5073564;28;20626;-66
2022/01/10 08:13:58;;;;;;;41.07;22.77;;;1.80;99.90;;;;;;5075703;28;20209;-66
2022/01/10 08:16:24;;;;;;;51.10;25.93;;;1.80;99.90;;;;;;5077313;28;20647;-66
2022/01/10 08:18:50;;;;;;;46.03;23.10;;;1.80;99.90;;;;;;5075640;28;20637;-66
2022/01/10 08:21:16;;;;;;;42.27;23.10;;;1.80;99.90;;;;;;5075460;28;20215;-66
2022/01/10 08:23:42;;;;;;;47.07;23.23;;;1.80;99.90;;;;;;5076823;28;20190;-65
2022/01/10 08:26:08;;;;;;;44.43;22.30;;;1.90;99.90;;;;;;5076718;28;20684;-64
2022/01/10 08:28:39;;;;;;;45.53;23.03;;;1.90;99.90;;;;;;5077759;28;20205;-65
2022/01/10 08:31:05;;;;;;;44.17;23.93;;;1.90;99.90;;;;;;5077706;28;20614;-66
2022/01/10 08:33:31;;;;;;;43.97;24.00;;;1.90;99.90;;;;;;5076522;28;20219;-66
2022/01/10 08:35:58;;;;;;;44.70;22.53;;;1.90;99.90;;;;;;5076467;28;20231;-66
2022/01/10 08:38:27;;;;;;;43.80;22.60;;;1.90;99.90;;;;;;5077245;28;20579;-66
2022/01/10 08:40:53;;;;;;;46.43;23.57;;;1.90;99.90;;;;;;5076218;28;20231;-66
2022/01/10 08:43:19;;;;;;;47.43;23.40;;;2.00;99.90;;;;;;5076748;28;20194;-66
2022/01/10 08:45:45;;;;;;;43.97;25.10;;;2.10;99.90;;;;;;5076879;28;20505;-66
2022/01/10 08:48:11;;;;;;;38.97;22.53;;;2.10;99.90;;;;;;5076676;28;20551;-66
2022/01/10 08:50:37;;;;;;;46.30;24.37;;;2.20;99.90;;;;;;5076284;28;20178;-66
2022/01/10 08:53:08;;;;;;;49.47;24.23;;;2.20;99.90;;;;;;5076215;28;20200;-66
2022/01/10 08:55:34;;;;;;;43.80;21.37;;;2.20;99.90;;;;;;5076447;28;20518;-66
2022/01/10 08:58:00;;;;;;;45.17;23.00;;;2.20;99.90;;;;;;5074913;28;20178;-66
2022/01/10 09:00:27;;;;;;;47.87;22.77;;;2.40;99.90;;;;;;5076421;28;20258;-66
2022/01/10 09:02:53;;;;;;;47.83;22.50;;;2.40;99.90;;;;;;5074839;28;20231;-66
2022/01/10 09:05:19;;;;;;;47.23;22.53;;;2.40;99.90;;;;;;5074735;28;20174;-66
2022/01/10 09:07:46;;;;;;;44.17;21.30;;;2.40;99.90;;;;;;5076512;28;20173;-66
2022/01/10 09:10:12;;;;;;;38.70;20.77;;;2.40;99.90;;;;;;5076303;28;20566;-66
2022/01/10 09:12:38;;;;;;;31.57;19.37;;;2.50;99.90;;;;;;5075740;28;20212;-66
2022/01/10 09:15:09;;;;;;;39.97;22.70;;;2.50;99.90;;;;;;5075837;28;20201;-66
2022/01/10 09:17:35;;;;;;;34.30;20.97;;;2.50;99.90;;;;;;5074629;28;20630;-66
2022/01/10 09:20:01;;;;;;;34.90;21.83;;;2.60;99.90;;;;;;5075807;28;20253;-66
2022/01/10 09:22:27;;;;;;;39.07;23.50;;;2.60;99.90;;;;;;5074505;28;20198;-66
2022/01/10 09:24:53;;;;;;;40.70;21.57;;;2.70;99.90;;;;;;5074863;28;20217;-66
2022/01/10 09:27:18;;;;;;;38.97;19.77;;;2.70;99.90;;;;;;5075625;28;20193;-66
2022/01/10 09:29:49;;;;;;;41.20;21.80;;;2.70;99.90;;;;;;5075585;28;20162;-66
2022/01/10 09:32:15;;;;;;;37.93;20.23;;;2.80;99.90;;;;;;5075961;28;20491;-64
2022/01/10 09:34:41;;;;;;;39.60;21.13;;;2.80;99.90;;;;;;5077350;28;20686;-63
2022/01/10 09:37:07;;;;;;;38.57;20.43;;;2.80;99.90;;;;;;5080039;28;20162;-66
2022/01/10 09:39:33;;;;;;;39.97;20.40;;;2.90;99.90;;;;;;5079376;28;20181;-64
2022/01/10 09:41:59;;;;;;;38.03;20.43;;;2.90;99.90;;;;;;5076087;28;20181;-65
2022/01/10 09:44:25;;;;;;;35.33;18.77;;;2.90;99.90;;;;;;5078942;28;20189;-64
2022/01/10 09:46:53;;;;;;;38.93;20.90;;;3.00;99.90;;;;;;5077811;28;20268;-65
2022/01/10 09:49:20;;;;;;;42.20;21.60;;;3.10;99.90;;;;;;5077828;28;20178;-65
2022/01/10 09:51:46;;;;;;;38.77;21.27;;;3.20;99.90;;;;;;5076838;28;20576;-65
2022/01/10 09:54:14;;;;;;;42.67;21.97;;;3.30;99.90;;;;;;5079703;28;20202;-67
2022/01/10 09:56:40;;;;;;;36.73;19.17;;;3.40;99.90;;;;;;5076994;28;20170;-65
2022/01/10 09:59:07;;;;;;;37.30;20.07;;;3.40;99.90;;;;;;5079486;28;20170;-67
2022/01/10 10:01:34;;;;;;;33.97;18.80;;;3.30;99.90;;;;;;5076750;28;20181;-65
2022/01/10 10:04:02;;;;;;;33.67;19.60;;;3.20;99.90;;;;;;5077455;28;20246;-67
2022/01/10 10:06:30;;;;;;;32.33;19.57;;;3.20;99.90;;;;;;5075282;28;20541;-66
2022/01/10 10:09:05;;;;;;;33.87;17.90;;;3.30;99.90;;;;;;5073613;28;20173;-64
2022/01/10 10:11:57;;;;;;;30.17;17.43;;;3.20;99.90;;;;;;5076226;28;20517;-66
2022/01/10 10:14:24;;;;;;;31.33;18.17;;;3.30;99.90;;;;;;5076369;28;20291;-65
2022/01/10 10:16:53;;;;;;;37.90;19.47;;;3.30;99.90;;;;;;5076769;28;20166;-65
2022/01/10 10:19:28;;;;;;;28.47;17.43;;;3.20;99.90;;;;;;5073484;28;20622;-65
2022/01/10 10:21:56;;;;;;;38.17;19.67;;;3.30;99.90;;;;;;5074876;28;20166;-65
2022/01/10 10:24:22;;;;;;;38.00;19.53;;;3.40;99.90;;;;;;5074528;28;20194;-65
2022/01/10 10:26:48;;;;;;;38.83;18.60;;;3.50;99.90;;;;;;5074460;28;20239;-65
2022/01/10 10:29:17;;;;;;;36.53;19.53;;;3.50;99.90;;;;;;5075140;28;20192;-65
2022/01/10 10:31:48;;;;;;;28.10;16.43;;;3.60;99.90;;;;;;5074578;28;20579;-65
2022/01/10 10:34:33;;;;;;;31.47;18.97;;;3.70;99.90;;;;;;5073188;28;20217;-65
2022/01/10 10:37:08;;;;;;;36.63;19.23;;;3.80;99.90;;;;;;5074036;28;20172;-65
2022/01/10 10:39:37;;;;;;;34.17;18.63;;;4.10;99.90;;;;;;5074866;28;20174;-65
2022/01/10 10:42:06;;;;;;;30.50;17.43;;;4.30;99.90;;;;;;5074343;28;20185;-66
2022/01/10 10:44:33;;;;;;;33.70;17.90;;;4.40;99.90;;;;;;5074199;28;20190;-65
2022/01/10 10:46:59;;;;;;;29.77;16.50;;;4.50;99.90;;;;;;5074824;28;20178;-66
2022/01/10 10:49:33;;;;;;;32.90;17.40;;;4.80;99.90;;;;;;5073978;28;20182;-65
2022/01/10 10:52:02;;;;;;;30.13;17.10;;;4.90;99.90;;;;;;5072679;28;20172;-66
2022/01/10 10:54:33;;;;;;;38.57;17.67;;;4.90;99.90;;;;;;5073712;28;20201;-65
2022/01/10 10:57:04;;;;;;;33.73;16.70;;;5.00;99.90;;;;;;5073561;28;20154;-65
2022/01/10 10:59:32;;;;;;;33.47;17.27;;;5.10;99.90;;;;;;5072205;28;20165;-65
2022/01/10 11:01:58;;;;;;;29.77;17.87;;;5.30;99.90;;;;;;5073653;28;20177;-65
2022/01/10 11:04:25;;;;;;;29.93;16.27;;;5.50;99.90;;;;;;5072285;28;20211;-66
2022/01/10 11:06:51;;;;;;;33.47;17.07;;;5.60;99.90;;;;;;5073871;28;20224;-65
2022/01/10 11:09:18;;;;;;;29.33;17.50;;;5.60;99.90;;;;;;5073435;28;20185;-65
2022/01/10 11:11:46;;;;;;;30.67;18.43;;;5.80;99.90;;;;;;5073682;28;20174;-65
2022/01/10 11:14:17;;;;;;;31.03;16.60;;;5.80;99.90;;;;;;5073491;28;20221;-65
2022/01/10 11:16:46;;;;;;;31.20;16.83;;;6.20;99.90;;;;;;5072108;28;20711;-66
2022/01/10 11:19:16;;;;;;;29.77;17.70;;;6.30;99.90;;;;;;5073234;28;20172;-65
2022/01/10 11:21:46;;;;;;;33.10;17.70;;;6.40;99.90;;;;;;5073082;28;20166;-65
2022/01/10 11:24:32;;;;;;;29.07;16.10;;;6.40;99.90;;;;;;5073521;28;20201;-65
2022/01/10 11:26:57;;;;;;;30.17;17.17;;;6.30;99.90;;;;;;5073707;28;20272;-65
2022/01/10 11:29:29;;;;;;;30.03;16.10;;;6.40;99.90;;;;;;5073745;28;20224;-65
2022/01/10 11:31:54;;;;;;;32.37;17.10;;;6.50;99.90;;;;;;5073342;28;20166;-65
2022/01/10 11:34:20;;;;;;;26.00;14.80;;;6.70;99.90;;;;;;5072918;28;20616;-65
2022/01/10 11:36:47;;;;;;;33.40;16.37;;;6.90;99.90;;;;;;5073306;28;20279;-65
2022/01/10 11:39:13;;;;;;;25.90;15.23;;;7.00;99.90;;;;;;5072950;28;20189;-65
2022/01/10 11:41:39;;;;;;;23.97;15.53;;;7.10;99.90;;;;;;5071555;28;20231;-65
2022/01/10 11:44:11;;;;;;;23.30;14.10;;;7.30;99.90;;;;;;5071537;28;20220;-65
2022/01/10 11:46:43;;;;;;;33.80;15.70;;;7.50;99.90;;;;;;5072790;28;20253;-65
2022/01/10 11:49:08;;;;;;;22.43;13.87;;;7.70;99.90;;;;;;5071684;28;20525;-65
2022/01/10 11:51:41;;;;;;;24.67;13.23;;;7.70;99.90;;;;;;5072893;28;20196;-65
2022/01/10 11:54:22;;;;;;;23.00;12.43;;;7.80;99.90;;;;;;5072644;28;20239;-65
2022/01/10 11:56:54;;;;;;;23.60;12.73;;;7.90;99.90;;;;;;5071465;28;20166;-65
2022/01/10 11:59:23;;;;;;;30.80;12.50;;;7.60;99.90;;;;;;5071973;28;20162;-65
2022/01/10 12:02:02;;;;;;;24.07;13.07;;;7.20;99.90;;;;;;5072715;28;20196;-65
2022/01/10 12:04:33;;;;;;;21.23;12.73;;;6.70;99.90;;;;;;5072688;28;20189;-65
2022/01/10 12:06:59;;;;;;;24.37;13.47;;;6.40;99.90;;;;;;5072654;28;20166;-65
2022/01/10 12:09:26;;;;;;;28.43;13.93;;;6.10;99.90;;;;;;5071273;28;20204;-65
2022/01/10 12:11:53;;;;;;;27.87;14.57;;;5.90;99.90;;;;;;5072710;28;20256;-65
2022/01/10 12:14:21;;;;;;;22.93;12.90;;;5.70;99.90;;;;;;5071123;28;20213;-65
2022/01/10 12:16:47;;;;;;;22.67;13.40;;;5.70;99.90;;;;;;5071252;28;20210;-65
2022/01/10 12:19:13;;;;;;;22.50;13.47;;;5.90;99.90;;;;;;5072782;28;20189;-65
2022/01/10 12:21:40;;;;;;;24.53;13.63;;;6.20;99.90;;;;;;5072633;28;20170;-65
2022/01/10 12:24:07;;;;;;;23.47;13.60;;;6.50;99.90;;;;;;5071036;28;20295;-65
2022/01/10 12:26:34;;;;;;;28.13;13.13;;;6.60;99.90;;;;;;5072256;28;20190;-65
2022/01/10 12:29:01;;;;;;;28.27;14.10;;;6.80;99.90;;;;;;5072680;28;20228;-66
2022/01/10 12:31:29;;;;;;;19.40;12.13;;;7.10;99.90;;;;;;5073467;28;20188;-66
2022/01/10 12:33:56;;;;;;;27.23;12.80;;;7.50;99.90;;;;;;5072934;28;20213;-65
2022/01/10 12:36:24;;;;;;;24.30;13.00;;;7.70;99.90;;;;;;5072453;28;20205;-65
2022/01/10 12:38:52;;;;;;;27.27;12.57;;;7.80;99.90;;;;;;5072433;28;20315;-66
2022/01/10 12:41:20;;;;;;;21.03;12.73;;;7.70;99.90;;;;;;5070906;28;20552;-65
2022/01/10 12:43:49;;;;;;;25.33;12.33;;;7.90;99.90;;;;;;5072446;28;20197;-65
2022/01/10 12:46:18;;;;;;;26.67;12.40;;;7.90;99.90;;;;;;5072428;28;20227;-65